Tanner Field, CO

5:42 AM MST on February 24, 2017 (GMT -0700)
East Lewis | | Change Station

Elev 6909 ft 37.52 °N, 108.63 °W | Updated 27 seconds ago

Mostly Cloudy
Mostly Cloudy
57.3 °F
Feels Like 57.3 °F
N
0.0
Wind Variable Wind from East
Gusts 0.0 mph

Today
High -- | Low -- °F
--% Chance of Precip.
Yesterday
High -- | Low -- °F
Precip. -- in
Pressure 29.87 in
Visibility 10.0 miles
Clouds Few 5500 ft
Scattered Clouds 7000 ft
Overcast 10000 ft
Dew Point 35 °F
Humidity 44%
Rainfall 0.00 in
Snow Depth Not available.
6:52 AM 6:03 PM
Waning Crescent, 5% visible
METAR KCEZ 241153Z AUTO 06003KT 10SM FEW055 SCT070 OVC100 M06/M07 A2985 RMK AO2 SLP114 60000 T10611072 11039 21061 52004
Pressure 29.87 in
Visibility 10.0 miles
Clouds Few 5500 ft
Scattered Clouds 7000 ft
Overcast 10000 ft
Dew Point 35 °F
Humidity 44%
Rainfall 0.00 in
Snow Depth Not available.
6:52 AM 6:03 PM
Waning Crescent, 5% visible
METAR KCEZ 241153Z AUTO 06003KT 10SM FEW055 SCT070 OVC100 M06/M07 A2985 RMK AO2 SLP114 60000 T10611072 11039 21061 52004

Get Your Daily Forecast Email!

Thanks for signing up!

Be on the lookout for a verification email in your inbox.

You'll start receiving the daily forecast at 8 AM.

×

10-Day Weather Forecast

Almanac

Astronomy

Feb. 24, 2017 Rise Set
Actual Time
Civil Twilight
Nautical Twilight
Astronomical Twilight
Moon
Length of Visible Light
Length of Day
Tomorrow will be .
, % of the Moon is Illuminated

Today's Extremes

State Highs State Lows

Community

WunderPhotos

Upload Photos

1,962,540 photos uploaded!

WunderBlog® & News

Nearby

Air Quality

  Air Quality AQ Index Pollutant
Not available.

Snow Depth

Station Depth Elevation

Earthquake Activity

City Distance Mag. Time & Date
Minimum magnitude displayed is 2.5.

Coastal Water Temperatures

Place Temperature

Stations

Nearby Weather Stations

Station Location Temp. Windchill Dew Point Humidity Wind Precip. Elev Updated Type
                   

Watches & Warnings

There are currently no watches in effect.